createdAt,value
2023-03-12T00:00:22.888Z,0.00
2023-03-12T00:01:22.898Z,0.00
2023-03-12T00:02:22.959Z,0.00
2023-03-12T00:03:22.868Z,0.00
2023-03-12T00:04:22.928Z,0.00
2023-03-12T00:05:22.880Z,0.00
2023-03-12T00:06:22.816Z,0.00
2023-03-12T00:07:22.797Z,0.00
2023-03-12T00:08:22.785Z,0.00
2023-03-12T00:09:22.779Z,0.00
2023-03-12T00:10:22.783Z,0.00
2023-03-12T00:11:22.754Z,0.00
2023-03-12T00:12:22.904Z,0.00
2023-03-12T00:13:22.730Z,0.00
2023-03-12T00:14:22.721Z,0.00
2023-03-12T00:15:22.710Z,0.00
2023-03-12T00:16:22.787Z,0.00
2023-03-12T00:17:22.723Z,0.00
2023-03-12T00:18:22.677Z,0.00
2023-03-12T00:19:22.666Z,0.00
2023-03-12T00:20:22.703Z,0.00
2023-03-12T00:21:22.649Z,0.00
2023-03-12T00:22:22.640Z,0.00
2023-03-12T00:23:22.631Z,0.00
2023-03-12T00:24:22.632Z,0.00
2023-03-12T00:25:22.624Z,0.00
2023-03-12T00:26:22.598Z,0.00
2023-03-12T00:27:22.584Z,0.00
2023-03-12T00:28:22.571Z,0.00
2023-03-12T00:29:22.566Z,0.00
2023-03-12T00:30:22.589Z,0.00
2023-03-12T00:31:22.602Z,0.00
2023-03-12T00:32:22.601Z,0.00
2023-03-12T00:33:22.514Z,0.00
2023-03-12T00:34:22.504Z,0.00
2023-03-12T00:35:22.527Z,0.00
2023-03-12T00:36:22.501Z,0.00
2023-03-12T00:37:22.480Z,0.00
2023-03-12T00:38:22.466Z,0.00
2023-03-12T00:39:22.457Z,0.00
2023-03-12T00:40:22.460Z,0.00
2023-03-12T00:41:22.430Z,0.00
2023-03-12T00:42:22.422Z,0.00
2023-03-12T00:43:22.429Z,0.00
2023-03-12T00:44:22.395Z,0.00
2023-03-12T00:45:22.415Z,0.00
2023-03-12T00:46:22.447Z,0.00
2023-03-12T00:47:22.361Z,0.00
2023-03-12T00:48:22.363Z,0.00
2023-03-12T00:49:22.350Z,0.00
2023-03-12T00:50:22.355Z,0.00
2023-03-12T00:51:22.325Z,0.00
2023-03-12T00:52:22.329Z,0.00
2023-03-12T00:53:22.304Z,0.00
2023-03-12T00:54:22.293Z,0.00
2023-03-12T00:55:22.300Z,0.00
2023-03-12T00:56:22.274Z,0.00
2023-03-12T00:57:22.267Z,0.00
2023-03-12T00:58:22.257Z,0.00
2023-03-12T00:59:22.239Z,0.00
2023-03-12T01:00:22.245Z,0.00
2023-03-12T01:01:22.227Z,0.00
2023-03-12T01:02:22.254Z,0.00
2023-03-12T01:03:22.203Z,0.00
2023-03-12T01:04:22.274Z,0.00
2023-03-12T01:05:22.191Z,0.00
2023-03-12T01:06:22.171Z,0.00
2023-03-12T01:07:22.150Z,0.00
2023-03-12T01:08:22.176Z,0.00
2023-03-12T01:09:22.136Z,0.00
2023-03-12T01:10:22.152Z,0.00
2023-03-12T01:11:22.120Z,0.00
2023-03-12T01:12:22.123Z,0.00
2023-03-12T01:13:22.097Z,0.00
2023-03-12T01:14:22.080Z,0.00
2023-03-12T01:15:22.087Z,0.00
2023-03-12T01:16:22.166Z,0.00
2023-03-12T01:17:22.051Z,0.00
2023-03-12T01:18:22.049Z,0.00
2023-03-12T01:19:22.029Z,0.00
2023-03-12T01:20:22.033Z,0.00
2023-03-12T01:21:22.016Z,0.00
2023-03-12T01:22:22.003Z,0.00
2023-03-12T01:23:21.991Z,0.00
2023-03-12T01:24:21.992Z,0.00
2023-03-12T01:25:21.986Z,0.00
2023-03-12T01:26:21.969Z,0.00
2023-03-12T01:27:21.950Z,0.00
2023-03-12T01:28:21.938Z,0.00
2023-03-12T01:29:21.925Z,0.00
2023-03-12T01:30:21.932Z,0.00
2023-03-12T01:31:21.974Z,0.00
2023-03-12T01:32:21.898Z,0.00
2023-03-12T01:33:21.878Z,0.00
2023-03-12T01:34:21.872Z,0.00
2023-03-12T01:35:21.912Z,0.00
2023-03-12T01:36:21.937Z,0.00
2023-03-12T01:37:21.852Z,0.00
2023-03-12T01:38:21.824Z,0.00
2023-03-12T01:39:21.809Z,0.00
2023-03-12T01:40:21.832Z,0.00
2023-03-12T01:41:21.796Z,0.00
2023-03-12T01:42:21.785Z,0.00
2023-03-12T01:43:21.767Z,0.00
2023-03-12T01:44:21.760Z,0.00
2023-03-12T01:45:21.762Z,0.00
2023-03-12T01:46:21.733Z,0.00
2023-03-12T01:47:21.725Z,0.00
2023-03-12T01:48:21.720Z,0.00
2023-03-12T01:49:21.703Z,0.00
2023-03-12T01:50:21.721Z,0.00
2023-03-12T01:51:21.680Z,0.00
2023-03-12T01:52:21.679Z,0.00
2023-03-12T01:53:21.661Z,0.00
2023-03-12T01:54:21.647Z,0.00
2023-03-12T01:55:21.655Z,0.00
2023-03-12T01:56:21.652Z,0.00
2023-03-12T01:57:21.614Z,0.00
2023-03-12T01:58:21.606Z,0.00
2023-03-12T01:59:21.604Z,0.00
2023-03-12T02:00:21.617Z,0.00
2023-03-12T02:01:21.768Z,0.00
2023-03-12T02:02:21.594Z,0.00
2023-03-12T02:03:21.553Z,0.00
2023-03-12T02:04:21.641Z,0.00
2023-03-12T02:05:21.537Z,0.00
2023-03-12T02:06:21.534Z,0.00
2023-03-12T02:07:21.522Z,0.00
2023-03-12T02:08:21.495Z,0.00
2023-03-12T02:09:21.495Z,0.00
2023-03-12T02:10:21.482Z,0.00
2023-03-12T02:11:21.490Z,0.00
2023-03-12T02:12:21.481Z,0.00
2023-03-12T02:13:21.448Z,0.00
2023-03-12T02:14:21.448Z,0.00
2023-03-12T02:15:21.433Z,0.00
2023-03-12T02:16:21.514Z,0.00
2023-03-12T02:17:21.411Z,0.00
2023-03-12T02:18:21.411Z,0.00
2023-03-12T02:19:21.385Z,0.00
2023-03-12T02:20:21.381Z,0.00
2023-03-12T02:21:21.392Z,0.00
2023-03-12T02:22:21.371Z,0.00
2023-03-12T02:23:21.349Z,0.00
2023-03-12T02:24:21.331Z,0.00
2023-03-12T02:25:21.319Z,0.00
2023-03-12T02:26:21.313Z,0.00
2023-03-12T02:27:21.324Z,0.00
2023-03-12T02:28:21.320Z,0.00
2023-03-12T02:29:21.284Z,0.00
2023-03-12T02:30:21.270Z,0.00
2023-03-12T02:31:21.326Z,0.00
2023-03-12T02:32:21.316Z,0.00
2023-03-12T02:33:21.242Z,0.00
2023-03-12T02:34:21.227Z,0.00
2023-03-12T02:35:21.229Z,0.00
2023-03-12T02:36:21.218Z,0.00
2023-03-12T02:37:21.212Z,0.00
2023-03-12T02:38:21.202Z,0.00
2023-03-12T02:39:21.172Z,0.00
2023-03-12T02:40:21.159Z,0.00
2023-03-12T02:41:21.174Z,0.00
2023-03-12T02:42:21.155Z,0.00
2023-03-12T02:43:21.128Z,0.00
2023-03-12T02:44:21.135Z,0.00
2023-03-12T02:45:21.110Z,0.00
2023-03-12T02:46:21.168Z,0.00
2023-03-12T02:47:21.110Z,0.00
2023-03-12T02:48:21.079Z,0.00
2023-03-12T02:49:21.072Z,0.00
2023-03-12T02:50:21.058Z,0.00
2023-03-12T02:51:21.062Z,0.00
2023-03-12T02:52:21.064Z,0.00
2023-03-12T02:53:21.020Z,0.00
2023-03-12T02:54:21.019Z,0.00
2023-03-12T02:55:21.002Z,0.00
2023-03-12T02:56:20.995Z,0.00
2023-03-12T02:57:20.992Z,0.00
2023-03-12T02:58:20.979Z,0.00
2023-03-12T02:59:20.961Z,0.00
2023-03-12T03:00:20.997Z,0.00
2023-03-12T03:01:20.993Z,0.00
2023-03-12T03:02:20.933Z,0.00
2023-03-12T03:03:20.927Z,0.00
2023-03-12T03:04:21.015Z,0.00
2023-03-12T03:05:20.905Z,0.00
2023-03-12T03:06:20.936Z,0.00
2023-03-12T03:07:20.872Z,0.00
2023-03-12T03:08:20.870Z,0.00
2023-03-12T03:09:20.864Z,0.00
2023-03-12T03:10:20.845Z,0.00
2023-03-12T03:11:20.852Z,0.00
2023-03-12T03:12:20.840Z,0.00
2023-03-12T03:13:20.817Z,0.00
2023-03-12T03:14:20.822Z,0.00
2023-03-12T03:15:20.796Z,0.00
2023-03-12T03:16:20.797Z,0.00
2023-03-12T03:17:20.803Z,0.00
2023-03-12T03:18:20.760Z,0.00
2023-03-12T03:19:20.808Z,0.00
2023-03-12T03:20:20.741Z,0.00
2023-03-12T03:21:20.876Z,0.00
2023-03-12T03:22:20.731Z,0.00
2023-03-12T03:23:20.709Z,0.00
2023-03-12T03:24:20.696Z,0.00
2023-03-12T03:25:20.686Z,0.00
2023-03-12T03:26:20.728Z,0.00
2023-03-12T03:27:20.665Z,0.00
2023-03-12T03:28:20.652Z,0.00
2023-03-12T03:29:20.669Z,0.00
2023-03-12T03:30:20.636Z,0.00
2023-03-12T03:31:20.741Z,0.00
2023-03-12T03:32:20.731Z,0.00
2023-03-12T03:33:20.602Z,0.00
2023-03-12T03:34:20.584Z,0.00
2023-03-12T03:35:20.579Z,0.00
2023-03-12T03:36:20.628Z,0.00
2023-03-12T03:37:20.555Z,0.00
2023-03-12T03:38:20.545Z,0.00
2023-03-12T03:39:20.541Z,0.00
2023-03-12T03:40:20.522Z,0.00
2023-03-12T03:41:20.551Z,0.00
2023-03-12T03:42:20.508Z,0.00
2023-03-12T03:43:20.488Z,0.00
2023-03-12T03:44:20.479Z,0.00
2023-03-12T03:45:20.471Z,0.00
2023-03-12T03:46:20.585Z,0.00
2023-03-12T03:47:20.462Z,0.00
2023-03-12T03:48:20.468Z,0.00
2023-03-12T03:49:20.425Z,0.00
2023-03-12T03:50:20.416Z,0.00
2023-03-12T03:51:20.427Z,0.00
2023-03-12T03:52:20.391Z,0.00
2023-03-12T03:53:20.390Z,0.00
2023-03-12T03:54:20.371Z,0.00
2023-03-12T03:55:20.361Z,0.00
2023-03-12T03:56:20.364Z,0.00
2023-03-12T03:57:20.337Z,0.00
2023-03-12T03:58:20.326Z,0.00
2023-03-12T03:59:20.358Z,0.00
2023-03-12T04:00:20.308Z,0.00
2023-03-12T04:01:20.336Z,0.00
2023-03-12T04:02:20.332Z,0.00
2023-03-12T04:03:20.403Z,0.00
2023-03-12T04:04:20.305Z,0.00
2023-03-12T04:05:20.265Z,0.00
2023-03-12T04:06:20.248Z,0.00
2023-03-12T04:07:20.271Z,0.00
2023-03-12T04:08:20.225Z,0.00
2023-03-12T04:09:20.242Z,0.00
2023-03-12T04:10:20.213Z,0.00
2023-03-12T04:11:20.223Z,0.00
2023-03-12T04:12:20.180Z,0.00
2023-03-12T04:13:20.167Z,0.00
2023-03-12T04:14:20.159Z,0.00
2023-03-12T04:15:20.149Z,0.00
2023-03-12T04:16:20.262Z,0.00
2023-03-12T04:17:20.135Z,0.00
2023-03-12T04:18:20.172Z,0.00
2023-03-12T04:19:20.104Z,0.00
2023-03-12T04:20:20.134Z,0.00
2023-03-12T04:21:20.108Z,0.00
2023-03-12T04:22:20.097Z,0.00
2023-03-12T04:23:20.069Z,0.00
2023-03-12T04:24:20.051Z,0.00
2023-03-12T04:25:20.041Z,0.00
2023-03-12T04:26:20.044Z,0.00
2023-03-12T04:27:20.023Z,0.00
2023-03-12T04:28:20.017Z,0.00
2023-03-12T04:29:19.994Z,0.00
2023-03-12T04:30:19.998Z,0.00
2023-03-12T04:31:20.043Z,0.00
2023-03-12T04:32:20.040Z,0.00
2023-03-12T04:33:19.953Z,0.00
2023-03-12T04:34:19.993Z,0.00
2023-03-12T04:35:19.929Z,0.00
2023-03-12T04:36:19.964Z,0.00
2023-03-12T04:37:19.914Z,0.00
2023-03-12T04:38:19.901Z,0.00
2023-03-12T04:39:19.896Z,0.00
2023-03-12T04:40:19.900Z,0.00
2023-03-12T04:41:19.893Z,0.00
2023-03-12T04:42:19.869Z,0.00
2023-03-12T04:43:19.847Z,0.00
2023-03-12T04:44:19.856Z,0.00
2023-03-12T04:45:19.829Z,0.00
2023-03-12T04:46:19.880Z,0.00
2023-03-12T04:47:19.817Z,0.00
2023-03-12T04:48:19.805Z,0.00
2023-03-12T04:49:19.784Z,0.00
2023-03-12T04:50:19.784Z,0.00
2023-03-12T04:51:19.766Z,4.00
2023-03-12T04:52:19.805Z,0.00
2023-03-12T04:53:19.788Z,0.00
2023-03-12T04:54:19.735Z,0.00
2023-03-12T04:55:19.728Z,4.00
2023-03-12T04:56:19.722Z,0.00
2023-03-12T04:57:19.764Z,4.00
2023-03-12T04:58:19.697Z,4.00
2023-03-12T04:59:19.682Z,4.00
2023-03-12T05:00:19.676Z,0.00
2023-03-12T05:01:19.666Z,4.00
2023-03-12T05:02:19.679Z,4.00
2023-03-12T05:03:19.641Z,8.00
2023-03-12T05:04:19.631Z,8.00
2023-03-12T05:05:19.629Z,8.00
2023-03-12T05:06:19.610Z,12.00
2023-03-12T05:07:19.636Z,12.00
2023-03-12T05:08:19.613Z,16.00
2023-03-12T05:09:19.584Z,20.00
2023-03-12T05:10:19.576Z,20.00
2023-03-12T05:11:19.568Z,24.00
2023-03-12T05:12:19.574Z,32.00
2023-03-12T05:13:19.544Z,36.00
2023-03-12T05:14:19.536Z,36.00
2023-03-12T05:15:19.530Z,44.00
2023-03-12T05:16:19.601Z,52.00
2023-03-12T05:17:19.534Z,60.00
2023-03-12T05:18:19.488Z,68.00
2023-03-12T05:19:19.471Z,76.00
2023-03-12T05:20:19.459Z,88.00
2023-03-12T05:21:19.457Z,100.00
2023-03-12T05:22:19.464Z,112.00
2023-03-12T05:23:19.428Z,124.00
2023-03-12T05:24:19.438Z,140.00
2023-03-12T05:25:19.405Z,156.00
2023-03-12T05:26:19.399Z,168.00
2023-03-12T05:27:19.413Z,184.00
2023-03-12T05:28:19.392Z,204.00
2023-03-12T05:29:19.364Z,224.00
2023-03-12T05:30:19.360Z,240.00
2023-03-12T05:31:19.437Z,264.00
2023-03-12T05:32:19.371Z,288.00
2023-03-12T05:33:19.323Z,312.00
2023-03-12T05:34:19.324Z,348.00
2023-03-12T05:35:19.302Z,384.00
2023-03-12T05:36:19.292Z,412.00
2023-03-12T05:37:19.289Z,444.00
2023-03-12T05:38:19.274Z,480.00
2023-03-12T05:39:19.260Z,516.00
2023-03-12T05:40:19.273Z,548.00
2023-03-12T05:41:19.243Z,584.00
2023-03-12T05:42:19.242Z,616.00
2023-03-12T05:43:19.217Z,660.00
2023-03-12T05:44:19.222Z,700.00
2023-03-12T05:45:19.199Z,752.00
2023-03-12T05:46:19.190Z,828.00
2023-03-12T05:47:19.202Z,912.00
2023-03-12T05:48:19.170Z,1020.00
2023-03-12T05:49:19.153Z,1096.00
2023-03-12T05:50:19.142Z,1136.00
2023-03-12T05:51:19.134Z,1244.00
2023-03-12T05:52:19.142Z,1412.00
2023-03-12T05:53:19.113Z,1504.00
2023-03-12T05:54:19.099Z,1688.00
2023-03-12T05:55:19.089Z,1872.00
2023-03-12T05:56:19.092Z,2056.00
2023-03-12T05:57:19.102Z,2036.00
2023-03-12T05:58:19.056Z,1712.00
2023-03-12T05:59:19.047Z,2020.00
2023-03-12T06:00:19.031Z,2788.00
2023-03-12T06:01:19.022Z,3124.00
2023-03-12T06:02:19.073Z,2956.00
2023-03-12T06:03:19.013Z,2508.00
2023-03-12T06:04:18.999Z,2124.00
2023-03-12T06:05:18.979Z,2264.00
2023-03-12T06:06:18.972Z,2248.00
2023-03-12T06:07:19.002Z,2592.00
2023-03-12T06:08:18.946Z,3808.00
2023-03-12T06:09:18.939Z,4248.00
2023-03-12T06:10:18.921Z,4592.00
2023-03-12T06:11:18.911Z,4912.00
2023-03-12T06:12:18.932Z,5112.00
2023-03-12T06:13:18.893Z,5244.00
2023-03-12T06:14:18.884Z,4860.00
2023-03-12T06:15:18.890Z,4364.00
2023-03-12T06:16:18.909Z,4276.00
2023-03-12T06:17:18.874Z,5036.00
2023-03-12T06:18:18.834Z,6500.00
2023-03-12T06:19:18.834Z,7048.00
2023-03-12T06:20:18.812Z,7584.00
2023-03-12T06:21:18.809Z,8944.00
2023-03-12T06:22:18.807Z,11436.00
2023-03-12T06:23:21.481Z,11816.00
2023-03-12T06:24:18.768Z,9520.00
2023-03-12T06:25:18.762Z,8480.00
2023-03-12T06:26:18.748Z,8836.00
2023-03-12T06:27:18.830Z,10456.00
2023-03-12T06:28:18.747Z,12260.00
2023-03-12T06:29:18.735Z,11920.00
2023-03-12T06:30:18.707Z,13452.00
2023-03-12T06:31:18.761Z,14656.00
2023-03-12T06:32:18.748Z,13808.00
2023-03-12T06:33:18.675Z,12800.00
2023-03-12T06:34:18.685Z,11704.00
2023-03-12T06:35:18.651Z,9608.00
2023-03-12T06:36:18.638Z,10092.00
2023-03-12T06:37:18.665Z,12924.00
2023-03-12T06:38:18.616Z,12584.00
2023-03-12T06:39:18.609Z,14136.00
2023-03-12T06:40:18.594Z,13608.00
2023-03-12T06:41:18.589Z,17472.00
2023-03-12T06:42:18.605Z,18304.00
2023-03-12T06:43:18.563Z,19552.00
2023-03-12T06:44:18.594Z,20832.00
2023-03-12T06:45:18.538Z,20800.00
2023-03-12T06:46:18.625Z,19904.00
2023-03-12T06:47:18.546Z,20800.00
2023-03-12T06:48:18.506Z,21728.00
2023-03-12T06:49:18.494Z,21792.00
2023-03-12T06:50:18.485Z,21696.00
2023-03-12T06:51:18.488Z,21952.00
2023-03-12T06:52:18.474Z,19904.00
2023-03-12T06:53:18.457Z,14432.00
2023-03-12T06:54:18.449Z,16544.00
2023-03-12T06:55:18.430Z,14368.00
2023-03-12T06:56:18.417Z,19168.00
2023-03-12T06:57:18.453Z,21152.00
2023-03-12T06:58:18.394Z,23232.00
2023-03-12T06:59:18.409Z,22560.00
2023-03-12T07:00:18.399Z,19328.00
2023-03-12T07:01:18.363Z,20416.00
2023-03-12T07:02:18.439Z,14208.00
2023-03-12T07:03:18.343Z,13216.00
2023-03-12T07:04:18.337Z,11660.00
2023-03-12T07:05:18.374Z,13920.00
2023-03-12T07:06:18.314Z,20864.00
2023-03-12T07:07:18.324Z,25408.00
2023-03-12T07:08:18.288Z,25088.00
2023-03-12T07:09:18.288Z,26976.00
2023-03-12T07:10:18.276Z,27936.00
2023-03-12T07:11:18.261Z,30688.00
2023-03-12T07:12:18.267Z,25120.00
2023-03-12T07:13:18.235Z,23872.00
2023-03-12T07:14:18.225Z,21088.00
2023-03-12T07:15:18.221Z,17952.00
2023-03-12T07:16:18.279Z,16000.00
2023-03-12T07:17:18.257Z,14848.00
2023-03-12T07:18:18.183Z,17440.00
2023-03-12T07:19:18.186Z,19840.00
2023-03-12T07:20:18.165Z,22080.00
2023-03-12T07:21:18.155Z,25856.00
2023-03-12T07:22:18.158Z,22592.00
2023-03-12T07:23:18.131Z,32032.00
2023-03-12T07:24:18.120Z,29024.00
2023-03-12T07:25:19.108Z,23840.00
2023-03-12T07:26:18.102Z,28256.00
2023-03-12T07:27:18.102Z,29824.00
2023-03-12T07:28:18.077Z,25568.00
2023-03-12T07:29:18.065Z,27808.00
2023-03-12T07:30:18.060Z,34688.00
2023-03-12T07:31:18.055Z,29440.00
2023-03-12T07:32:18.107Z,33024.00
2023-03-12T07:33:18.136Z,33024.00
2023-03-12T07:34:18.164Z,30016.00
2023-03-12T07:35:18.066Z,30368.00
2023-03-12T07:36:18.203Z,27552.00
2023-03-12T07:37:17.995Z,38464.00
2023-03-12T07:38:18.081Z,35968.00
2023-03-12T07:39:17.961Z,35456.00
2023-03-12T07:40:17.955Z,41056.00
2023-03-12T07:41:17.991Z,41376.00
2023-03-12T07:42:17.979Z,43968.00
2023-03-12T07:43:20.358Z,47040.00
2023-03-12T07:44:17.910Z,44864.00
2023-03-12T07:45:17.914Z,48608.00
2023-03-12T07:46:18.009Z,40544.00
2023-03-12T07:47:24.216Z,43456.00
2023-03-12T07:48:18.926Z,45728.00
2023-03-12T07:49:17.856Z,50816.00
2023-03-12T07:50:17.937Z,51296.00
2023-03-12T07:51:17.823Z,48992.00
2023-03-12T07:52:17.890Z,50560.00
2023-03-12T07:53:17.820Z,50304.00
2023-03-12T07:54:17.787Z,51552.00
2023-03-12T07:55:17.867Z,53344.00
2023-03-12T07:56:17.986Z,57536.00
2023-03-12T07:57:17.922Z,42688.00
2023-03-12T07:58:17.938Z,28288.00
2023-03-12T07:59:17.818Z,26784.00
2023-03-12T08:00:17.762Z,56640.00
2023-03-12T08:01:17.816Z,49120.00
2023-03-12T08:02:17.828Z,46496.00
2023-03-12T08:03:17.915Z,44576.00
2023-03-12T08:04:17.852Z,52640.00
2023-03-12T08:05:17.670Z,51392.00
2023-03-12T08:06:17.764Z,50720.00
2023-03-12T08:07:17.697Z,51456.00
2023-03-12T08:08:17.657Z,51136.00
2023-03-12T08:09:17.622Z,51136.00
2023-03-12T08:10:17.664Z,48800.00
2023-03-12T08:11:17.599Z,41856.00
2023-03-12T08:12:17.682Z,43904.00
2023-03-12T08:13:17.621Z,47872.00
2023-03-12T08:14:17.596Z,40864.00
2023-03-12T08:15:17.566Z,40160.00
2023-03-12T08:16:17.565Z,43200.00
2023-03-12T08:17:17.548Z,48736.00
2023-03-12T08:18:17.552Z,54272.00
2023-03-12T08:19:17.512Z,54400.00
2023-03-12T08:20:17.552Z,50112.00
2023-03-12T08:21:17.495Z,44256.00
2023-03-12T08:22:17.505Z,45824.00
2023-03-12T08:23:17.484Z,45152.00
2023-03-12T08:24:17.458Z,42240.00
2023-03-12T08:25:17.455Z,40864.00
2023-03-12T08:26:17.438Z,36320.00
2023-03-12T08:27:17.427Z,46656.00
2023-03-12T08:28:17.440Z,51008.00
2023-03-12T08:29:17.402Z,51616.00
2023-03-12T08:30:17.405Z,51552.00
2023-03-12T08:31:17.419Z,46592.00
2023-03-12T08:32:17.507Z,43264.00
2023-03-12T08:33:17.432Z,40096.00
2023-03-12T08:34:17.347Z,42944.00
2023-03-12T08:35:17.340Z,52352.00
2023-03-12T08:36:17.348Z,53536.00
2023-03-12T08:37:17.315Z,54304.00
2023-03-12T08:38:17.329Z,55232.00
2023-03-12T08:39:17.310Z,53728.00
2023-03-12T08:40:17.326Z,53824.00
2023-03-12T08:41:17.283Z,43360.00
2023-03-12T08:42:17.260Z,42528.00
2023-03-12T08:43:17.275Z,42720.00
2023-03-12T08:44:17.252Z,31040.00
2023-03-12T08:45:17.238Z,27488.00
2023-03-12T08:46:17.290Z,26976.00
2023-03-12T08:47:17.233Z,26240.00
2023-03-12T08:48:17.244Z,30784.00
2023-03-12T08:49:17.194Z,30752.00
2023-03-12T08:50:17.180Z,31616.00
2023-03-12T08:51:17.212Z,34688.00
2023-03-12T08:52:17.198Z,31648.00
2023-03-12T08:53:17.174Z,28608.00
2023-03-12T08:54:17.138Z,27104.00
2023-03-12T08:55:17.123Z,22400.00
2023-03-12T08:56:17.113Z,20256.00
2023-03-12T08:57:17.107Z,14148.00
2023-03-12T08:58:17.116Z,12640.00
2023-03-12T08:59:17.082Z,12088.00
2023-03-12T09:00:17.069Z,12692.00
2023-03-12T09:01:17.077Z,15100.00
2023-03-12T09:02:17.070Z,19424.00
2023-03-12T09:03:17.082Z,19680.00
2023-03-12T09:04:17.074Z,18848.00
2023-03-12T09:05:17.014Z,18432.00
2023-03-12T09:06:17.131Z,23968.00
2023-03-12T09:07:17.019Z,33088.00
2023-03-12T09:08:17.018Z,33824.00
2023-03-12T09:09:16.971Z,29280.00
2023-03-12T09:10:16.967Z,39392.00
2023-03-12T09:11:16.951Z,45664.00
2023-03-12T09:12:16.951Z,35552.00
2023-03-12T09:13:16.943Z,29120.00
2023-03-12T09:15:17.910Z,41504.00
2023-03-12T09:16:16.930Z,47488.00
2023-03-12T09:17:16.944Z,37024.00
2023-03-12T09:18:16.944Z,37600.00
2023-03-12T09:19:16.913Z,34656.00
2023-03-12T09:20:16.858Z,35008.00
2023-03-12T09:21:16.852Z,28800.00
2023-03-12T09:22:16.838Z,28832.00
2023-03-12T09:23:16.829Z,36032.00
2023-03-12T09:24:16.840Z,51552.00
2023-03-12T09:25:16.805Z,63168.00
2023-03-12T09:26:16.789Z,63104.00
2023-03-12T09:27:16.773Z,81568.00
2023-03-12T09:28:16.785Z,85440.00
2023-03-12T09:29:16.752Z,83616.00
2023-03-12T09:30:16.741Z,74784.00
2023-03-12T09:31:16.814Z,70688.00
2023-03-12T09:32:16.815Z,62336.00
2023-03-12T09:33:16.743Z,65792.00
2023-03-12T09:34:16.693Z,41024.00
2023-03-12T09:35:16.684Z,30400.00
2023-03-12T09:36:16.670Z,23200.00
2023-03-12T09:37:16.713Z,20064.00
2023-03-12T09:38:16.688Z,18624.00
2023-03-12T09:39:16.645Z,18784.00
2023-03-12T09:40:16.648Z,19232.00
2023-03-12T09:41:16.620Z,21824.00
2023-03-12T09:42:16.603Z,30112.00
2023-03-12T09:43:16.614Z,39776.00
2023-03-12T09:44:16.582Z,54048.00
2023-03-12T09:45:16.571Z,51904.00
2023-03-12T09:46:16.586Z,62752.00
2023-03-12T09:47:16.567Z,53184.00
2023-03-12T09:48:16.539Z,56640.00
2023-03-12T09:49:16.527Z,56896.00
2023-03-12T09:50:16.515Z,71040.00
2023-03-12T09:51:16.504Z,80192.00
2023-03-12T09:52:16.505Z,83040.00
2023-03-12T09:53:16.490Z,78112.00
2023-03-12T09:54:16.486Z,77888.00
2023-03-12T09:55:16.474Z,78176.00
2023-03-12T09:56:16.475Z,81696.00
2023-03-12T09:57:16.458Z,81632.00
2023-03-12T09:58:16.432Z,80448.00
2023-03-12T09:59:16.419Z,75680.00
2023-03-12T10:00:16.410Z,81632.00
2023-03-12T10:01:16.407Z,73952.00
2023-03-12T10:02:16.416Z,69344.00
2023-03-12T10:03:16.382Z,57280.00
2023-03-12T10:04:16.462Z,52288.00
2023-03-12T10:05:16.440Z,46304.00
2023-03-12T10:06:16.422Z,39264.00
2023-03-12T10:07:16.348Z,40096.00
2023-03-12T10:08:23.937Z,41376.00
2023-03-12T10:09:17.314Z,39584.00
2023-03-12T10:10:16.305Z,59680.00
2023-03-12T10:11:16.291Z,20576.00
2023-03-12T10:12:16.304Z,58496.00
2023-03-12T10:13:16.282Z,60320.00
2023-03-12T10:14:23.938Z,59904.00
2023-03-12T10:15:17.247Z,47424.00
2023-03-12T10:16:16.394Z,49792.00
2023-03-12T10:17:16.228Z,38112.00
2023-03-12T10:18:16.458Z,37792.00
2023-03-12T10:19:16.206Z,38496.00
2023-03-12T10:20:16.202Z,43040.00
2023-03-12T10:21:16.206Z,51072.00
2023-03-12T10:22:16.176Z,51104.00
2023-03-12T10:23:16.202Z,47680.00
2023-03-12T10:24:16.150Z,47104.00
2023-03-12T10:25:16.141Z,45248.00
2023-03-12T10:26:16.132Z,58528.00
2023-03-12T10:27:16.120Z,35616.00
2023-03-12T10:28:16.139Z,39936.00
2023-03-12T10:29:16.098Z,26144.00
2023-03-12T10:30:16.089Z,33504.00
2023-03-12T10:31:16.129Z,37280.00
2023-03-12T10:32:16.096Z,33824.00
2023-03-12T10:33:16.105Z,25248.00
2023-03-12T10:34:16.051Z,24832.00
2023-03-12T10:35:16.070Z,21056.00
2023-03-12T10:36:16.031Z,21984.00
2023-03-12T10:37:16.009Z,21920.00
2023-03-12T10:38:16.015Z,19552.00
2023-03-12T10:39:16.025Z,20928.00
2023-03-12T10:40:15.984Z,24352.00
2023-03-12T10:41:15.965Z,25152.00
2023-03-12T10:42:15.952Z,19040.00
2023-03-12T10:43:15.975Z,25120.00
2023-03-12T10:44:15.974Z,27712.00
2023-03-12T10:45:15.920Z,27072.00
2023-03-12T10:46:15.928Z,14380.00
2023-03-12T10:47:15.901Z,16736.00
2023-03-12T10:48:15.915Z,18112.00
2023-03-12T10:49:15.879Z,17984.00
2023-03-12T10:50:15.870Z,17760.00
2023-03-12T10:51:15.850Z,17472.00
2023-03-12T10:52:15.847Z,16800.00
2023-03-12T10:53:15.851Z,15824.00
2023-03-12T10:54:15.820Z,14588.00
2023-03-12T10:55:15.808Z,13016.00
2023-03-12T10:56:15.803Z,11632.00
2023-03-12T10:57:15.808Z,10912.00
2023-03-12T10:58:15.782Z,10528.00
2023-03-12T10:59:15.763Z,11312.00
2023-03-12T11:00:15.780Z,12444.00
2023-03-12T11:01:15.782Z,13048.00
2023-03-12T11:02:15.761Z,13880.00
2023-03-12T11:03:15.762Z,14052.00
2023-03-12T11:04:15.712Z,14012.00
2023-03-12T11:05:15.702Z,14084.00
2023-03-12T11:06:15.875Z,13880.00
2023-03-12T11:07:15.680Z,13680.00
2023-03-12T11:08:15.691Z,13344.00
2023-03-12T11:09:17.352Z,12528.00
2023-03-12T11:10:15.646Z,12700.00
2023-03-12T11:11:15.637Z,12940.00
2023-03-12T11:12:15.660Z,11936.00
2023-03-12T11:13:15.626Z,10612.00
2023-03-12T11:14:15.633Z,10488.00
2023-03-12T11:15:15.591Z,10184.00
2023-03-12T11:16:15.631Z,9856.00
2023-03-12T11:17:15.568Z,10468.00
2023-03-12T11:18:15.578Z,10584.00
2023-03-12T11:19:15.547Z,10136.00
2023-03-12T11:20:15.536Z,10444.00
2023-03-12T11:21:15.523Z,10568.00
2023-03-12T11:22:15.544Z,10628.00
2023-03-12T11:23:15.499Z,10696.00
2023-03-12T11:24:15.493Z,10704.00
2023-03-12T11:25:15.480Z,10820.00
2023-03-12T11:26:15.513Z,10856.00
2023-03-12T11:27:15.503Z,11336.00
2023-03-12T11:28:15.473Z,11488.00
2023-03-12T11:29:15.518Z,11660.00
2023-03-12T11:30:15.506Z,11760.00
2023-03-12T11:31:15.551Z,11736.00
2023-03-12T11:32:15.544Z,11484.00
2023-03-12T11:33:15.405Z,11276.00
2023-03-12T11:34:15.382Z,11160.00
2023-03-12T11:35:15.382Z,10716.00
2023-03-12T11:36:15.361Z,10160.00
2023-03-12T11:37:15.365Z,9304.00
2023-03-12T11:38:15.338Z,8696.00
2023-03-12T11:39:15.327Z,8024.00
2023-03-12T11:40:15.317Z,7432.00
2023-03-12T11:41:15.303Z,7220.00
2023-03-12T11:42:15.353Z,7532.00
2023-03-12T11:43:15.284Z,7792.00
2023-03-12T11:44:15.293Z,7852.00
2023-03-12T11:45:15.279Z,8080.00
2023-03-12T11:46:15.287Z,7872.00
2023-03-12T11:47:15.291Z,7416.00
2023-03-12T11:48:15.290Z,6748.00
2023-03-12T11:49:15.233Z,5948.00
2023-03-12T11:50:15.233Z,5516.00
2023-03-12T11:51:15.200Z,5204.00
2023-03-12T11:52:15.189Z,5112.00
2023-03-12T11:53:15.178Z,5056.00
2023-03-12T11:54:15.191Z,5152.00
2023-03-12T11:55:16.568Z,5352.00
2023-03-12T11:56:15.151Z,5600.00
2023-03-12T11:57:15.134Z,5796.00
2023-03-12T11:58:15.125Z,5852.00
2023-03-12T11:59:15.135Z,5868.00
2023-03-12T12:00:15.099Z,6068.00
2023-03-12T12:01:15.089Z,6348.00
2023-03-12T12:02:15.113Z,6672.00
2023-03-12T12:03:15.105Z,7132.00
2023-03-12T12:04:15.091Z,7296.00
2023-03-12T12:05:15.047Z,7264.00
2023-03-12T12:06:15.033Z,7580.00
2023-03-12T12:07:15.018Z,7936.00
2023-03-12T12:08:15.010Z,8152.00
2023-03-12T12:09:15.060Z,7868.00
2023-03-12T12:10:14.987Z,7332.00
2023-03-12T12:11:14.975Z,7044.00
2023-03-12T12:12:14.970Z,6820.00
2023-03-12T12:13:14.957Z,6432.00
2023-03-12T12:14:14.959Z,6012.00
2023-03-12T12:15:14.941Z,5636.00
2023-03-12T12:16:14.981Z,5304.00
2023-03-12T12:17:14.937Z,5168.00
2023-03-12T12:18:14.902Z,5184.00
2023-03-12T12:19:14.905Z,5156.00
2023-03-12T12:20:14.903Z,5084.00
2023-03-12T12:21:14.866Z,5036.00
2023-03-12T12:22:14.860Z,5160.00
2023-03-12T12:23:14.851Z,5380.00
2023-03-12T12:24:17.773Z,5556.00
2023-03-12T12:25:14.834Z,5960.00
2023-03-12T12:26:14.819Z,6276.00